M.v.bossclip Trader — C6R2085 — position and weather

sailwx.info

Track history (hours):
 
Tides and Currents Weather Stations Pressure Air Temp Water Temp Dewpoint Dewpoint Depression Visibility Wind Speed Wind Dir Waves Ship Positions

M.v.bossclip Trader

Last reported at 2018-May-06 20:07 UTC. Time now 2018-Jun-18 23:18 UTC.
Position S 28°21' E 033°03'.
Warning: this ship's position is 43 days out of date.

Length 179 m; draft 10 m.

Type: Cargo ship. MMSI: 309402000.

Date/timePositionNaut miles runAvg speedWind from/ knotsBaromVisibWave heightAir tempDewpointWater temp
2018-May-06 20:07S 28°21' E 033°03'1 1.8
2018-May-06 19:49S 28°21' E 033°03'1 1.8
2018-May-06 19:13S 28°20' E 033°04'1 1.7
2018-May-06 18:22S 28°20' E 033°06'1 1.6
2018-May-06 17:31S 28°19' E 033°07'0 1.8
2018-May-06 17:28S 28°19' E 033°07'1 1.6
2018-May-06 16:58S 28°18' E 033°08'1 1.5
2018-May-06 16:30S 28°18' E 033°09'1 1.5
2018-May-06 15:57S 28°18' E 033°09'1 1.4
2018-May-06 15:30S 28°17' E 033°10'1 1.5
2018-May-06 14:45S 28°17' E 033°11'1 1.6
2018-May-06 14:21S 28°17' E 033°12'7 1.9
2018-May-06 10:43S 28°13' E 033°19'1 1.7
2018-May-06 10:17S 28°13' E 033°20'5 1.5
2018-May-06 07:12S 28°11' E 033°25'0 1.5
2018-May-06 07:00S 28°11' E 033°25'49 7.2
2018-May-06 00:09S 28°42' E 032°41'2 8.5
2018-May-05 23:54S 28°43' E 032°40'4 8.3
2018-May-05 23:23S 28°46' E 032°37'4 8.3
2018-May-05 22:57S 28°49' E 032°34'4 8.1
2018-May-05 22:27S 28°53' E 032°31'5 7.8
2018-May-05 21:50S 28°56' E 032°28'3 7.9
2018-May-05 21:29S 28°58' E 032°25'5 8.2
2018-May-05 20:54S 29°01' E 032°21'4 8.8
2018-May-05 20:26S 29°04' E 032°17'3410.7
2018-May-05 17:17S 29°24' E 031°46'311.0
2018-May-05 17:00S 29°26' E 031°44'511.0
2018-May-05 16:30S 29°29' E 031°38'511.0
2018-May-05 16:00S 29°32' E 031°33'510.9
2018-May-05 15:30S 29°35' E 031°28'510.7
2018-May-05 15:00S 29°38' E 031°23'510.5
2018-May-05 14:30S 29°41' E 031°19'510.2
2018-May-05 14:00S 29°45' E 031°14'5 9.9
2018-May-05 13:30S 29°48' E 031°09'5 9.7
2018-May-05 13:00S 29°51' E 031°05'3 6.0
2018-May-05 12:30S 29°53' E 031°02'0 0.6
2018-May-05 12:00S 29°52' E 031°02'0 0.0
2018-May-05 11:30S 29°52' E 031°02'0 0.0
2018-May-05 11:00S 29°52' E 031°02'0 0.0
2018-May-05 10:30S 29°52' E 031°02'0 0.0
2018-May-05 10:00S 29°52' E 031°02'0 0.0
2018-May-05 09:30S 29°52' E 031°02'0 0.0
2018-May-05 09:00S 29°52' E 031°02'0 0.0
2018-May-05 08:27S 29°52' E 031°02'0 0.0
2018-May-05 08:00S 29°52' E 031°02'0 0.0
2018-May-05 07:30S 29°52' E 031°02'0 0.0
2018-May-05 07:00S 29°52' E 031°02'0 0.0
2018-May-05 06:30S 29°52' E 031°02'0 0.0
2018-May-05 06:00S 29°52' E 031°02'0 0.0
2018-May-05 05:30S 29°52' E 031°02'0 0.0
2018-May-05 05:00S 29°52' E 031°02'0 0.0
2018-May-05 04:30S 29°52' E 031°02'0 0.0
2018-May-05 04:00S 29°52' E 031°02'0 0.0
2018-May-05 03:30S 29°52' E 031°02'0 0.0
2018-May-05 02:57S 29°52' E 031°02'0 0.0
2018-May-05 02:30S 29°52' E 031°02'0 0.0
2018-May-05 02:00S 29°52' E 031°02'0 0.0
2018-May-05 01:30S 29°52' E 031°02'0 0.0
2018-May-05 00:54S 29°52' E 031°02'0 0.0
2018-May-05 00:30S 29°52' E 031°02'0 0.0
2018-May-04 23:57S 29°52' E 031°02'0 0.0
2018-May-04 23:30S 29°52' E 031°02'0 0.0
2018-May-04 23:00S 29°52' E 031°02'0 0.0
2018-May-04 22:30S 29°52' E 031°02'0 0.0
2018-May-04 21:57S 29°52' E 031°02'0 0.1
2018-May-04 21:30S 29°52' E 031°02'1 2.1
2018-May-04 21:01S 29°52' E 031°03'4 8.0
2018-May-04 20:30S 29°49' E 031°06'4 8.7
2018-May-04 20:01S 29°53' E 031°06'510.0
2018-May-04 19:31S 29°58' E 031°04'5 9.9
2018-May-04 19:00S 30°03' E 031°03'510.1
2018-May-04 18:31S 30°08' E 031°01'5 9.4
2018-May-04 18:00S 30°12' E 030°59'1 2.8
2018-May-04 17:29S 30°13' E 030°58'5 9.4
2018-May-04 17:00S 30°17' E 030°56'5 9.1
2018-May-04 16:29S 30°21' E 030°53'  
Track history (hours):
 
Tides and Currents Weather Stations Pressure Air Temp Water Temp Dewpoint Dewpoint Depression Visibility Wind Speed Wind Dir Waves Ship Positions

M.v.bossclip Trader

Last reported at 2018-May-06 20:07 UTC. Time now 2018-Jun-18 23:18 UTC.
Position S 28°21' E 033°03'.
Warning: this ship's position is 43 days out of date.

Length 179 m; draft 10 m.

Type: Cargo ship. MMSI: 309402000.

Date/timePositionNaut miles runAvg speedWind from/ knotsBaromVisibWave heightAir tempDewpointWater temp
2018-May-06 20:07S 28°21' E 033°03'1 1.8
2018-May-06 19:49S 28°21' E 033°03'1 1.8
2018-May-06 19:13S 28°20' E 033°04'1 1.7
2018-May-06 18:22S 28°20' E 033°06'1 1.6
2018-May-06 17:31S 28°19' E 033°07'0 1.8
2018-May-06 17:28S 28°19' E 033°07'1 1.6
2018-May-06 16:58S 28°18' E 033°08'1 1.5
2018-May-06 16:30S 28°18' E 033°09'1 1.5
2018-May-06 15:57S 28°18' E 033°09'1 1.4
2018-May-06 15:30S 28°17' E 033°10'1 1.5
2018-May-06 14:45S 28°17' E 033°11'1 1.6
2018-May-06 14:21S 28°17' E 033°12'7 1.9
2018-May-06 10:43S 28°13' E 033°19'1 1.7
2018-May-06 10:17S 28°13' E 033°20'5 1.5
2018-May-06 07:12S 28°11' E 033°25'0 1.5
2018-May-06 07:00S 28°11' E 033°25'49 7.2
2018-May-06 00:09S 28°42' E 032°41'2 8.5
2018-May-05 23:54S 28°43' E 032°40'4 8.3
2018-May-05 23:23S 28°46' E 032°37'4 8.3
2018-May-05 22:57S 28°49' E 032°34'4 8.1
2018-May-05 22:27S 28°53' E 032°31'5 7.8
2018-May-05 21:50S 28°56' E 032°28'3 7.9
2018-May-05 21:29S 28°58' E 032°25'5 8.2
2018-May-05 20:54S 29°01' E 032°21'4 8.8
2018-May-05 20:26S 29°04' E 032°17'3410.7
2018-May-05 17:17S 29°24' E 031°46'311.0
2018-May-05 17:00S 29°26' E 031°44'511.0
2018-May-05 16:30S 29°29' E 031°38'511.0
2018-May-05 16:00S 29°32' E 031°33'510.9
2018-May-05 15:30S 29°35' E 031°28'510.7
2018-May-05 15:00S 29°38' E 031°23'510.5
2018-May-05 14:30S 29°41' E 031°19'510.2
2018-May-05 14:00S 29°45' E 031°14'5 9.9
2018-May-05 13:30S 29°48' E 031°09'5 9.7
2018-May-05 13:00S 29°51' E 031°05'3 6.0
2018-May-05 12:30S 29°53' E 031°02'0 0.6
2018-May-05 12:00S 29°52' E 031°02'0 0.0
2018-May-05 11:30S 29°52' E 031°02'0 0.0
2018-May-05 11:00S 29°52' E 031°02'0 0.0
2018-May-05 10:30S 29°52' E 031°02'0 0.0
2018-May-05 10:00S 29°52' E 031°02'0 0.0
2018-May-05 09:30S 29°52' E 031°02'0 0.0
2018-May-05 09:00S 29°52' E 031°02'0 0.0
2018-May-05 08:27S 29°52' E 031°02'0 0.0
2018-May-05 08:00S 29°52' E 031°02'0 0.0
2018-May-05 07:30S 29°52' E 031°02'0 0.0
2018-May-05 07:00S 29°52' E 031°02'0 0.0
2018-May-05 06:30S 29°52' E 031°02'0 0.0
2018-May-05 06:00S 29°52' E 031°02'0 0.0
2018-May-05 05:30S 29°52' E 031°02'0 0.0
2018-May-05 05:00S 29°52' E 031°02'0 0.0
2018-May-05 04:30S 29°52' E 031°02'0 0.0
2018-May-05 04:00S 29°52' E 031°02'0 0.0
2018-May-05 03:30S 29°52' E 031°02'0 0.0
2018-May-05 02:57S 29°52' E 031°02'0 0.0
2018-May-05 02:30S 29°52' E 031°02'0 0.0
2018-May-05 02:00S 29°52' E 031°02'0 0.0
2018-May-05 01:30S 29°52' E 031°02'0 0.0
2018-May-05 00:54S 29°52' E 031°02'0 0.0
2018-May-05 00:30S 29°52' E 031°02'0 0.0
2018-May-04 23:57S 29°52' E 031°02'0 0.0
2018-May-04 23:30S 29°52' E 031°02'0 0.0
2018-May-04 23:00S 29°52' E 031°02'0 0.0
2018-May-04 22:30S 29°52' E 031°02'0 0.0
2018-May-04 21:57S 29°52' E 031°02'0 0.1
2018-May-04 21:30S 29°52' E 031°02'1 2.1
2018-May-04 21:01S 29°52' E 031°03'4 8.0
2018-May-04 20:30S 29°49' E 031°06'4 8.7
2018-May-04 20:01S 29°53' E 031°06'510.0
2018-May-04 19:31S 29°58' E 031°04'5 9.9
2018-May-04 19:00S 30°03' E 031°03'510.1
2018-May-04 18:31S 30°08' E 031°01'5 9.4
2018-May-04 18:00S 30°12' E 030°59'1 2.8
2018-May-04 17:29S 30°13' E 030°58'5 9.4
2018-May-04 17:00S 30°17' E 030°56'5 9.1
2018-May-04 16:29S 30°21' E 030°53'  

Dump ship's entire track history